Latest Weather Observations for Scoresby

IDV60801

Issued at 4:31 am EST Saturday 5 September 2015 (issued every 30 minutes, with the page automatically refreshed every 10 minutes)

About weather observations | Map of weather stations | Latest weather observations for VIC | Other Formats
Station Details ID: 086104 Name: SCORESBY RESEARCH INSTITUTE Lat: -37.87 Lon: 145.26 Height: 80.0 m
Data from the previous 72 hours. | See also: Recent months at Scoresby
Date/Time
EST
Temp
°C
App
Temp
°C
Dew
Point
Rel
Hum
%
Delta-T
°C
Wind Press
QNH
hPa
Press
MSL
hPa
Rain
since 9 am
mm
Dir
 
Spd
km/h
Gust
km/h
Spd
kts
Gust
kts
05/04:30am 9.4 8.5 6.1 80 1.5 CALM 0 2 0 1 - - 0.0
05/04:00am 9.3 8.5 6.4 82 1.3 CALM 0 0 0 0 - - 0.0
05/03:30am 9.3 8.4 6.0 80 1.5 CALM 0 0 0 0 - - 0.0
05/03:00am 9.5 8.2 6.2 80 1.5 SSW 2 7 1 4 - - 0.0
05/02:30am 9.6 8.4 6.3 80 1.5 SSW 2 6 1 3 - - 0.0
05/02:00am 9.7 8.5 6.4 80 1.5 WNW 2 4 1 2 - - 0.0
05/01:30am 9.5 8.8 6.9 84 1.2 CALM 0 2 0 1 - - 0.0
05/01:00am 9.7 9.0 6.8 82 1.4 CALM 0 0 0 0 - - 0.0
05/12:30am 9.9 9.2 6.8 81 1.5 CALM 0 0 0 0 - - 0.0
05/12:00am 10.0 9.2 6.7 80 1.6 CALM 0 4 0 2 - - 0.0
 
Date/Time
EST
Temp
°C
App
Temp
°C
Dew
Point
Rel
Hum
%
Delta-T
°C
Wind Press
QNH
hPa
Press
MSL
hPa
Rain
since 9 am
mm
Dir
 
Spd
km/h
Gust
km/h
Spd
kts
Gust
kts
04/11:30pm 10.1 8.6 6.8 80 1.6 SSW 4 7 2 4 - - 0.0
04/11:00pm 9.5 8.6 6.2 80 1.5 CALM 0 0 0 0 - - 0.0
04/10:30pm 9.5 8.6 5.9 78 1.7 CALM 0 0 0 0 - - 0.0
04/10:00pm 9.5 8.5 5.7 77 1.7 CALM 0 0 0 0 - - 0.0
04/09:30pm 9.5 8.5 5.5 76 1.8 CALM 0 0 0 0 - - 0.0
04/09:00pm 9.9 8.8 5.3 73 2.1 CALM 0 0 0 0 - - 0.0
04/08:30pm 10.3 9.2 4.9 69 2.4 CALM 0 0 0 0 - - 0.0
04/08:00pm 10.4 8.9 5.0 69 2.5 SSW 2 7 1 4 - - 0.0
04/07:30pm 10.5 8.2 4.9 68 2.5 SSW 6 9 3 5 - - 0.0
04/07:00pm 10.6 8.3 4.9 68 2.6 SSW 6 9 3 5 - - 0.0
04/06:30pm 10.6 8.7 4.7 67 2.7 SSW 4 9 2 5 - - 0.0
04/06:00pm 10.8 8.2 4.3 64 2.9 SSW 7 13 4 7 - - 0.0
04/05:30pm 11.1 8.6 3.6 60 3.3 SSW 6 13 3 7 - - 0.0
04/05:00pm 11.3 8.1 3.3 58 3.5 S 9 15 5 8 - - 0.0
04/04:30pm 11.4 7.5 3.2 57 3.6 SSW 13 22 7 12 - - 0.0
04/04:00pm 12.1 8.5 2.8 53 4.1 SW 11 22 6 12 - - 0.0
04/03:30pm 11.7 7.8 3.2 56 3.8 SSW 13 20 7 11 - - 0.0
04/03:00pm 12.2 8.4 3.9 57 3.7 SSW 13 20 7 11 - - 0.0
04/02:30pm 12.0 8.5 3.5 56 3.8 SSW 11 22 6 12 - - 0.0
04/02:00pm 12.4 8.8 3.1 53 4.1 SW 11 19 6 10 - - 0.0
04/01:30pm 12.1 8.1 2.8 53 4.1 SSW 13 19 7 10 - - 0.0
04/01:00pm 11.9 8.6 2.6 53 4.1 SSW 9 17 5 9 - - 0.0
04/12:30pm 12.0 8.2 3.8 57 3.7 SSW 13 20 7 11 - - 0.0
04/12:00pm 11.7 8.6 3.7 58 3.6 SSW 9 17 5 9 - - 0.0
04/11:30am 11.9 8.2 2.6 53 4.1 SSW 11 22 6 12 - - 0.0
04/11:00am 11.9 8.6 2.4 52 4.1 SSE 9 17 5 9 - - 0.0
04/10:30am 11.9 8.4 1.5 49 4.4 S 9 20 5 11 - - 0.0
04/10:00am 11.4 7.2 1.9 52 4.1 SSE 13 20 7 11 - - 0.0
04/09:30am 10.7 7.8 2.5 57 3.5 SSE 7 13 4 7 - - 0.0
04/09:00am 9.8 6.8 1.7 57 3.4 SSW 7 13 4 7 - - 0.0
04/08:30am 9.5 6.7 1.9 59 3.2 SSW 6 9 3 5 - - 0.0
04/08:00am 8.9 6.7 3.1 67 2.5 SSW 4 6 2 3 - - 0.0
04/07:30am 8.4 6.1 2.8 68 2.4 SSW 4 9 2 5 - - 0.0
04/07:00am 7.1 5.6 4.9 86 1.0 SSW 2 4 1 2 - - 0.0
04/06:30am 6.7 5.6 5.2 90 0.7 CALM 0 0 0 0 - - 0.0
04/06:00am 6.4 5.3 5.0 91 0.6 CALM 0 0 0 0 - - 0.0
04/05:30am 5.9 4.6 4.1 88 0.8 CALM 0 0 0 0 - - 0.0
04/05:00am 7.0 5.8 4.5 84 1.1 CALM 0 0 0 0 - - 0.0
04/04:30am 7.7 6.6 5.0 83 1.2 CALM 0 0 0 0 - - 0.0
04/04:00am 7.6 6.6 5.6 87 0.9 CALM 0 0 0 0 - - 0.0
04/03:30am 7.6 6.6 5.4 86 1.0 CALM 0 0 0 0 - - 0.0
04/03:00am 7.6 6.6 5.4 86 1.0 CALM 0 0 0 0 - - 0.0
04/02:30am 7.8 6.7 5.3 84 1.1 CALM 0 0 0 0 - - 0.0
04/02:00am 7.8 6.7 5.1 83 1.2 CALM 0 0 0 0 - - 0.0
04/01:30am 8.0 6.8 4.8 80 1.4 CALM 0 0 0 0 - - 0.0
04/01:00am 7.9 6.7 4.7 80 1.4 CALM 0 0 0 0 - - 0.0
04/12:30am 7.9 6.7 4.7 80 1.4 CALM 0 0 0 0 - - 0.0
04/12:00am 6.8 5.8 5.6 92 0.5 CALM 0 0 0 0 - - 0.0
 
Date/Time
EST
Temp
°C
App
Temp
°C
Dew
Point
Rel
Hum
%
Delta-T
°C
Wind Press
QNH
hPa
Press
MSL
hPa
Rain
since 9 am
mm
Dir
 
Spd
km/h
Gust
km/h
Spd
kts
Gust
kts
03/11:30pm 6.3 5.2 5.1 92 0.5 CALM 0 0 0 0 - - 0.0
03/11:00pm 5.9 4.7 4.7 92 0.5 CALM 0 0 0 0 - - 0.0
03/10:30pm 5.8 4.6 4.4 91 0.6 CALM 0 0 0 0 - - 0.0
03/10:00pm 5.9 4.7 4.4 90 0.6 CALM 0 2 0 1 - - 0.0
03/09:30pm 6.3 5.1 4.8 90 0.7 CALM 0 0 0 0 - - 0.0
03/09:00pm 6.6 5.4 4.6 87 0.9 CALM 0 0 0 0 - - 0.0
03/08:30pm 6.7 5.5 4.4 85 1.0 CALM 0 0 0 0 - - 0.0
03/08:00pm 8.0 6.7 4.2 77 1.7 CALM 0 4 0 2 - - 0.0
03/07:30pm 9.2 6.8 4.4 72 2.1 SSE 6 11 3 6 - - 0.0
03/07:00pm 9.6 7.1 4.8 72 2.2 SSE 7 13 4 7 - - 0.0
03/06:30pm 10.2 7.0 5.0 70 2.4 S 11 19 6 10 - - 0.0
03/06:00pm 11.1 6.8 5.4 68 2.6 S 17 28 9 15 - - 0.0
03/05:30pm 11.8 8.7 5.7 66 2.8 S 11 20 6 11 - - 0.0
03/05:00pm 11.8 8.1 6.3 69 2.6 SSW 15 24 8 13 - - 0.0
03/04:30pm 12.9 9.8 7.4 69 2.7 SSW 13 24 7 13 - - 0.0
03/04:00pm 13.3 10.3 5.9 61 3.5 S 11 17 6 9 - - 0.0
03/03:30pm 14.3 10.4 6.9 61 3.6 S 17 24 9 13 - - 0.0
03/03:00pm 14.1 11.5 7.6 65 3.2 S 11 22 6 12 - - 0.0
03/02:30pm 14.1 11.7 8.7 70 2.7 S 11 17 6 9 - - 0.0
03/02:00pm 13.0 10.3 9.1 77 2.0 SW 13 19 7 10 - - 0.0
03/01:30pm 13.6 11.6 8.7 72 2.5 S 9 15 5 8 - - 0.0
03/01:00pm 13.3 10.9 8.6 73 2.4 S 11 22 6 12 - - 0.0
03/12:30pm 14.0 11.4 9.2 73 2.5 S 13 24 7 13 - - 0.0
03/12:00pm 13.3 11.1 9.4 77 2.0 S 11 22 6 12 - - 0.0
03/11:30am 12.8 10.1 8.9 77 2.0 SSE 13 26 7 14 - - 0.0
03/11:00am 12.8 10.1 9.1 78 1.9 S 13 20 7 11 - - 0.0
03/10:30am 12.9 9.9 9.2 78 1.9 S 15 22 8 12 - - 0.0
03/10:00am 13.3 11.4 9.0 75 2.2 S 9 22 5 12 - - 0.0
03/09:30am 13.1 10.7 8.8 75 2.2 S 11 20 6 11 - - 0.0
03/09:00am 13.1 11.6 9.2 77 2.0 SSE 7 13 4 7 - - 6.0
03/08:30am 11.9 10.7 8.0 77 1.9 SSE 4 9 2 5 - - -
03/08:00am 11.0 9.5 8.4 84 1.3 SE 6 9 3 5 - - -
03/07:30am 10.0 8.5 8.4 90 0.8 S 6 11 3 6 - - -
03/07:00am 9.7 8.6 8.5 92 0.6 S 4 6 2 3 - - -
03/06:30am 9.3 8.9 8.2 93 0.5 CALM 0 0 0 0 - - -
03/06:00am 9.5 9.1 8.3 92 0.6 CALM 0 0 0 0 - - -
03/05:30am 9.6 9.2 8.2 91 0.7 CALM 0 0 0 0 - - -
03/05:00am 9.7 9.3 8.1 90 0.8 CALM 0 0 0 0 - - -
03/04:30am 10.2 9.7 8.0 86 1.1 CALM 0 0 0 0 - - -
03/04:00am 10.1 9.6 7.9 86 1.1 CALM 0 2 0 1 - - -
03/03:30am 10.1 9.1 7.5 84 1.2 SSE 2 4 1 2 - - -
03/03:00am 10.3 9.0 7.7 84 1.3 SSE 4 6 2 3 - - 0.4
03/02:30am 10.2 9.0 8.0 86 1.1 S 4 7 2 4 - - -
03/02:00am 10.1 8.6 8.4 89 0.8 SSE 6 7 3 4 - - -
03/01:30am 10.1 9.1 9.0 93 0.5 SSW 4 6 2 3 - - -
03/01:00am 10.1 9.9 9.0 93 0.5 CALM 0 0 0 0 - - -
03/12:30am 10.1 9.4 8.7 91 0.7 SE 2 6 1 3 - - -
03/12:00am 9.9 9.3 9.0 94 0.4 SSE 2 6 1 3 - - -
 
Date/Time
EST
Temp
°C
App
Temp
°C
Dew
Point
Rel
Hum
%
Delta-T
°C
Wind Press
QNH
hPa
Press
MSL
hPa
Rain
since 9 am
mm
Dir
 
Spd
km/h
Gust
km/h
Spd
kts
Gust
kts
02/11:30pm 10.2 9.7 9.4 95 0.4 SE 2 7 1 4 - - -
02/11:00pm 9.9 9.7 9.0 94 0.4 CALM 0 0 0 0 - - -
02/10:30pm 10.1 9.9 9.0 93 0.5 CALM 0 0 0 0 - - -
02/10:00pm 10.2 10.0 9.0 92 0.6 CALM 0 0 0 0 - - -
02/09:30pm 10.3 10.1 9.1 92 0.6 CALM 0 0 0 0 - - -
02/09:00pm 10.5 10.3 9.1 91 0.7 CALM 0 0 0 0 - - 5.0
02/08:30pm 10.8 10.6 9.2 90 0.8 CALM 0 0 0 0 - - -
02/08:00pm 11.2 10.8 9.6 90 0.8 E 2 6 1 3 - - -
02/07:30pm 11.2 11.0 9.1 87 1.1 CALM 0 4 0 2 - - -
02/07:00pm 12.7 11.0 7.6 71 2.5 NNW 6 19 3 10 - - -
02/06:30pm 14.1 11.9 6.2 59 3.8 N 7 15 4 8 - - -
02/06:00pm 14.9 12.7 6.2 56 4.2 NNW 7 20 4 11 - - -
02/05:30pm 15.2 13.7 6.7 57 4.2 NNW 4 7 2 4 - - -
02/05:00pm 15.5 13.6 6.8 56 4.3 ENE 6 13 3 7 - - -
02/04:30pm 16.4 14.1 5.7 49 5.2 NE 7 13 4 7 - - -
02/04:00pm 16.9 14.7 5.2 46 5.6 ENE 6 13 3 7 - - -
02/03:30pm 17.0 14.9 5.9 48 5.4 NNE 6 11 3 6 - - -
02/03:00pm 16.9 13.0 5.2 46 5.6 NNE 15 22 8 12 - - 0.0
02/02:30pm 17.5 13.6 5.4 45 5.9 N 15 24 8 13 - - -
02/02:00pm 16.6 13.0 4.9 46 5.6 NNE 13 22 7 12 - - -
02/01:30pm 17.6 15.3 7.6 52 5.1 NNE 9 15 5 8 - - -
02/01:00pm 16.0 13.4 6.2 52 4.8 NNE 9 17 5 9 - - -
02/12:30pm 15.9 12.3 6.6 54 4.6 NNE 15 22 8 12 - - -
02/12:00pm 15.9 11.4 6.9 55 4.4 NNE 20 30 11 16 - - -
02/10:00am 13.3 8.4 5.2 58 3.8 NNE 20 33 11 18 - - 0.0
02/09:30am 13.4 8.4 4.8 56 4.0 NNE 20 33 11 18 - - 0.0
02/09:00am 11.6 7.2 4.6 62 3.2 NNE 17 30 9 16 - - 0.0
02/08:30am 10.9 7.3 4.8 66 2.8 N 13 20 7 11 - - 0.0
02/08:00am 10.4 6.3 4.3 66 2.7 NNE 15 26 8 14 - - 0.0
02/07:30am 10.3 6.5 4.0 65 2.8 NNE 13 20 7 11 - - 0.0
02/07:00am 10.4 6.6 4.1 65 2.8 NNE 13 22 7 12 - - 0.0
02/06:30am 10.9 6.7 3.9 62 3.1 NNE 15 24 8 13 - - 0.0
02/06:00am 10.5 6.3 3.8 63 3.0 NNE 15 20 8 11 - - 0.0
02/05:30am 10.2 6.0 3.7 64 2.9 NNE 15 22 8 12 - - 0.0
02/05:00am 10.0 6.2 3.7 65 2.8 NNE 13 20 7 11 - - 0.0

Other Formats:

Comma delimited format used in spreadsheet applications
http://www.bom.gov.au/fwo/IDV60801/IDV60801.95867.axf

JavaScript Object Notation format (JSON) in row-major order
http://www.bom.gov.au/fwo/IDV60801/IDV60801.95867.json